ADDS METAR Data INFO
IDs: Format: Raw Decoded Include TAF

Data at: 0623 UTC 15 Dec 2017

PABR 150553Z 06023KT 5SM -SN BLSN BKN065 OVC080 M18/M21 A2988 RMK AO2 PK WND 06028/0504 SNB22 SLP119 P0000 60000 T11831206 11167 21183 52009
PABR 150453Z 06024KT 8SM BLSN FEW070 OVC100 M18/M21 A2987 RMK AO2 PK WND 06029/0449 SLP115 T11831206
PABR 150353Z 06021G31KT 5SM BLSN SCT065 OVC110 M18/M21 A2986 RMK AO2 PK WND 06031/0344 SLP113 T11781206
PABR 150253Z 06021G29KT 3SM BLSN OVC065 M18/M20 A2985 RMK AO2 PK WND 06030/0239 SNE0155 SLP110 P0000 60000 T11781200 53001
PABR 150153Z 06024KT 3SM -SN BLSN OVC040 M17/M20 A2984 RMK AO2 PK WND 06031/0132 SLP108 P0000 T11721200
PABR 150053Z 05023G28KT 3SM -SN BLSN OVC055 M17/M19 A2984 RMK PK WND 05030/0037 SNB14 SLP108 P0000 T11721194 VIA AUTODIAL
PABR 142353Z 06023G29KT 6SM BLSN OVC055 M17/M19 A2985 RMK AO2 PK WND 06032/2314 SLP109 T11671194 11161 21172 56002
PABR 142253Z 06022KT 6SM BLSN OVC070 M17/M19 A2985 RMK AO2 PK WND 06031/2154 SLP109 T11671194
PABR 142153Z 06027G32KT 8SM BKN065 BKN090 M17/M19 A2984 RMK AO2 PK WND 05032/2148 SLP106 T11671194
PABR 142053Z 06022KT 9SM OVC060 M17/M19 A2985 RMK AO2 PK WND 06030/2042 SLP111 T11671194 53001
PABR 141953Z 06024G30KT 6SM BLSN SCT060 M17/M20 A2985 RMK AO2 PK WND 06032/1857 SLP109 T11671200
PABR 141853Z 06024KT 6SM BLSN OVC055 M17/M19 A2984 RMK AO2 PK WND 06032/1836 SLP106 T11671194
PABR 141753Z 06026G31KT 6SM BLSN OVC048 M16/M19 A2985 RMK AO2 PK WND 06034/1716 SLP109 T11611189 11156 21161 50001
PABR 141653Z 06021G31KT 6SM BLSN OVC050 M16/M19 A2986 RMK AO2 PK WND 06033/1607 SLP112 T11611194
PABR 141553Z 05025G33KT 3SM BLSN SCT033 BKN044 M16/M19 A2985 RMK AO2 PK WND 05036/1458 CIG 033 NE SLP110 T11611189
PABR 141453Z 05026G34KT 3SM BLSN CLR M16/M19 A2984 RMK AO2 PK WND 04036/1440 VIS 1 1/2 NE SLP108 T11611189 56015
PABR 141445Z 05027G36KT 2 1/2SM BLSN FEW034 M16/M19 A2985 RMK AO2 PK WND 04036/1440 VIS 1 1/2 NE T11611189
PABR 141434Z AUTO 05027G33KT 4SM BLSN SCT032 M16/M18 A2985 RMK AO2 PK WND 06035/1420 VIS 1 1/2 NE T11561183 TSNO
PABR 141353Z AUTO 05024G38KT 4SM BLSN OVC027 M16/M18 A2985 RMK AO2 PK WND 05038/1350 VIS 1 1/2 NE SLP111 T11561183 TSNO
PABR 141325Z AUTO 05027G35KT 3SM BLSN OVC029 M16/M18 A2986 RMK AO2 PK WND 05035/1258 VIS 1 1/4 NE T11561183 TSNO
PABR 141253Z AUTO 05025G34KT 4SM BLSN SCT033 M16/M18 A2988 RMK AO2 PK WND 05034/1239 VIS 1 1/4 NE SLP118 T11561183 TSNO
PABR 141153Z AUTO 05024G32KT 5SM BLSN CLR M16/M18 A2989 RMK AO2 PK WND 06036/1057 VIS 1 3/4 NE SLP122 T11561183 11150 21167 56005 TSNO
PABR 141053Z AUTO 06028G37KT 4SM BLSN CLR M15/M18 A2989 RMK AO2 PK WND 06039/1000 VIS 1 1/4 NE SLP124 T11501183 TSNO
PABR 140953Z AUTO 06029G38KT 3SM BLSN CLR M16/M18 A2989 RMK AO2 PK WND 06038/0944 VIS 1 NE SLP123 T11561183 TSNO
PABR 140853Z AUTO 05025G36KT 2 1/2SM BLSN CLR M16/M19 A2990 RMK AO2 PK WND 06040/0809 VIS 1 NE SLP128 T11611189 411441167 55005 TSNO
PABR 140824Z AUTO 06027G35KT 3SM BLSN CLR M17/M19 A2992 RMK AO2 PK WND 06040/0809 VIS 1 NE T11671189 TSNO
PABR 140812Z AUTO 06028G40KT 1 3/4SM BLSN CLR M17/M19 A2992 RMK AO2 PK WND 06040/0809 VIS 1 NE T11671189 TSNO
PABR 140807Z AUTO 06029G36KT 3SM BLSN CLR M17/M19 A2992 RMK AO2 PK WND 06036/0800 VIS 1 NE T11671189 TSNO
PABR 140800Z AUTO 06029G36KT 2 1/2SM BLSN CLR M17/M19 A2991 RMK AO2 PK WND 06036/0800 VIS 1 NE T11671189 TSNO
PABR 140753Z AUTO 06029G35KT 2 1/2SM BLSN VV005 M17/M19 A2992 RMK AO2 PK WND 06037/0733 VIS 3/4 NE SLP133 T11671189 TSNO
PABR 140745Z AUTO 06027G32KT 2 1/2SM BLSN VV005 M17/M19 A2992 RMK AO2 PK WND 06037/0733 VIS 1 1/4 NE T11671189 TSNO
PABR 140711Z AUTO 06026G37KT 1SM R07/P6000FT BLSN VV005 M17/M18 A2993 RMK AO2 PK WND 07037/0705 T11671183 TSNO
PABR 140653Z 06030G37KT 2SM BLSN VV005 M17/M19 A2993 RMK AO2 PK WND 06038/0600 VIS 1 NE SLP137 T11671189
PABR 140556Z 06032G39KT 1SM R07/P6000FT BLSN BR VV005 M17/M19 A2993 RMK AO2 PK WND 07038/0555 T11671189
PABR 140553Z COR 06027G39KT 1 1/4SM BLSN CLR M17/M19 A2993 RMK AO2 PK WND 06039/0549 SLP137 T11671189 11150 21167 56012
PABR 140453Z 07031G36KT 1SM R07/6000VP6000FT BLSN BR VV003 M17/M19 A2993 RMK AO2 PK WND 07036/0441 SLP138 T11671189
PABR 140353Z 06028KT 3SM BLSN BR CLR M17/M19 A2995 RMK AO2 PK WND 06037/0338 SLP143 T11671189
PABR 140253Z 06029G36KT 3SM BLSN BR CLR M17/M19 A2996 RMK AO2 PK WND 06036/0244 SLP149 T11671194 58017
PABR 140153Z 06027G34KT 3SM BLSN BR CLR M17/M19 A2998 RMK AO2 PK WND 06036/0057 SLP156 T11671194
PABR 140053Z 06028KT 3SM BLSN BR FEW045 M16/M19 A3000 RMK AO2 PK WND 06036/0037 SLP159 T11611189
PABR 132353Z 06027G35KT 3SM BLSN BR OVC043 M15/M18 A3001 RMK AO2 PK WND 06035/2301 SLP165 T11501178 11144 21156 58011
PABR 132253Z 06029G35KT 5SM BLSN BR OVC040 M14/M17 A3001 RMK AO2 PK WND 06037/2242 SLP165 T11441172
PABR 132153Z 06025G33KT 5SM BLSN BR OVC038 M14/M17 A3005 RMK AO2 PK WND 07036/2140 SLP178 T11441172
PABR 132053Z 06028KT 5SM BLSN BR OVC100 M15/M18 A3005 RMK AO2 PK WND 06033/2053 SLP176 T11501178 55001
PABR 131953Z 06027KT 5SM BLSN BR OVC095 M15/M18 A3004 RMK AO2 PK WND 06035/1939 SLP175 T11501178
PABR 131950Z 06028KT 5SM BLSN BR OVC095 M15/M18 A3004 RMK AO2 PK WND 06035/1939
PABR 131909Z 06028KT 2SM BLSN BR BKN090 OVC110 M15/M18 A3005 RMK AO2 PK WND 06034/1900 T11501178
PABR 131900Z 06030G34KT 1 3/4SM BLSN BR BKN090 OVC120 M15/M18 A3005 RMK AO2 PK WND 06034/1900 T11501178
PABR 131853Z 06029KT 5SM BLSN BR SCT090 OVC120 M16/M18 A3005 RMK AO2 PK WND 06034/1828 SLP177 T11561178